createdAt,value
2018-01-20T00:00:33.068Z,3.20
2018-01-20T00:03:01.311Z,3.10
2018-01-20T00:05:29.645Z,3.20
2018-01-20T00:07:57.876Z,3.10
2018-01-20T00:10:38.752Z,3.00
2018-01-20T00:13:07.094Z,3.00
2018-01-20T00:15:35.347Z,3.10
2018-01-20T00:18:03.657Z,3.00
2018-01-20T00:20:31.925Z,3.00
2018-01-20T00:23:00.165Z,3.00
2018-01-20T00:25:29.198Z,3.00
2018-01-20T00:27:57.439Z,3.00
2018-01-20T00:30:26.462Z,2.90
2018-01-20T00:32:54.698Z,2.90
2018-01-20T00:35:23.077Z,2.90
2018-01-20T00:37:51.328Z,2.90
2018-01-20T00:40:19.601Z,2.90
2018-01-20T00:42:47.886Z,2.80
2018-01-20T00:45:16.139Z,2.70
2018-01-20T00:47:44.446Z,2.70
2018-01-20T00:50:12.706Z,2.70
2018-01-20T00:52:40.941Z,2.70
2018-01-20T00:55:09.280Z,2.60
2018-01-20T00:57:37.554Z,2.60
2018-01-20T01:00:05.797Z,2.60
2018-01-20T01:02:34.857Z,2.60
2018-01-20T01:05:03.119Z,2.60
2018-01-20T01:07:31.436Z,2.60
2018-01-20T01:09:59.674Z,2.60
2018-01-20T01:12:27.938Z,2.60
2018-01-20T01:14:56.178Z,2.60
2018-01-20T01:17:24.510Z,2.60
2018-01-20T01:19:52.755Z,2.60
2018-01-20T01:22:21.788Z,2.60
2018-01-20T01:24:50.026Z,2.60
2018-01-20T01:27:19.037Z,2.70
2018-01-20T01:29:47.297Z,2.70
2018-01-20T01:32:16.330Z,2.70
2018-01-20T01:34:44.565Z,2.70
2018-01-20T01:37:12.941Z,2.60
2018-01-20T01:39:41.187Z,2.70
2018-01-20T01:42:09.445Z,2.70
2018-01-20T01:44:37.682Z,2.70
2018-01-20T01:47:05.936Z,2.70
2018-01-20T01:49:34.207Z,2.70
2018-01-20T01:52:03.356Z,2.80
2018-01-20T01:54:31.682Z,2.80
2018-01-20T01:56:59.938Z,2.80
2018-01-20T01:59:28.182Z,2.70
2018-01-20T02:01:56.421Z,2.80
2018-01-20T02:04:24.662Z,2.80
2018-01-20T02:06:54.533Z,2.80
2018-01-20T02:09:22.761Z,2.80
2018-01-20T02:11:51.052Z,2.80
2018-01-20T02:14:19.293Z,2.90
2018-01-20T02:16:47.600Z,2.90
2018-01-20T02:19:16.642Z,3.00
2018-01-20T02:21:44.922Z,2.90
2018-01-20T02:24:13.198Z,2.90
2018-01-20T02:26:41.477Z,2.90
2018-01-20T02:29:09.722Z,3.00
2018-01-20T02:31:38.722Z,3.00
2018-01-20T02:34:07.783Z,3.00
2018-01-20T02:36:36.025Z,3.00
2018-01-20T02:39:04.293Z,3.10
2018-01-20T02:41:32.556Z,3.10
2018-01-20T02:44:01.586Z,3.10
2018-01-20T02:46:29.825Z,3.00
2018-01-20T02:48:58.837Z,3.10
2018-01-20T02:51:27.165Z,3.10
2018-01-20T02:53:55.518Z,3.10
2018-01-20T02:56:23.758Z,3.10
2018-01-20T02:58:52.011Z,3.00
2018-01-20T03:01:20.267Z,3.00
2018-01-20T03:03:48.523Z,3.00
2018-01-20T03:06:16.767Z,3.00
2018-01-20T03:08:45.022Z,3.00
2018-01-20T03:11:13.271Z,3.00
2018-01-20T03:13:41.530Z,3.00
2018-01-20T03:16:10.532Z,3.00
2018-01-20T03:18:39.556Z,3.00
2018-01-20T03:21:07.799Z,3.00
2018-01-20T03:23:36.873Z,3.10
2018-01-20T03:26:05.154Z,3.10
2018-01-20T03:28:33.434Z,3.10
2018-01-20T03:31:01.678Z,3.20
2018-01-20T03:33:29.912Z,3.30
2018-01-20T03:35:58.929Z,3.40
2018-01-20T03:38:27.378Z,3.40
2018-01-20T03:40:55.606Z,3.50
2018-01-20T03:43:23.896Z,3.50
2018-01-20T03:45:52.158Z,3.50
2018-01-20T03:48:20.428Z,3.50
2018-01-20T03:50:48.737Z,3.50
2018-01-20T03:53:16.973Z,3.50
2018-01-20T03:55:45.994Z,3.50
2018-01-20T03:58:14.331Z,3.50
2018-01-20T04:00:42.581Z,3.50
2018-01-20T04:03:10.854Z,3.50
2018-01-20T04:05:39.874Z,3.50
2018-01-20T04:08:08.135Z,3.50
2018-01-20T04:10:36.404Z,3.40
2018-01-20T04:13:04.666Z,3.40
2018-01-20T04:15:32.989Z,3.50
2018-01-20T04:18:01.249Z,3.50
2018-01-20T04:20:29.507Z,3.40
2018-01-20T04:22:57.762Z,3.40
2018-01-20T04:25:26.090Z,3.60
2018-01-20T04:27:54.345Z,3.50
2018-01-20T04:30:23.364Z,3.50
2018-01-20T04:32:51.621Z,3.50
2018-01-20T04:35:20.657Z,3.50
2018-01-20T04:37:48.968Z,3.50
2018-01-20T04:40:17.198Z,3.60
2018-01-20T04:42:45.495Z,3.50
2018-01-20T04:45:13.734Z,3.50
2018-01-20T04:47:42.052Z,3.50
2018-01-20T04:50:10.301Z,3.50
2018-01-20T04:52:39.326Z,3.50
2018-01-20T04:55:07.606Z,3.50
2018-01-20T04:57:35.899Z,3.60
2018-01-20T05:00:04.133Z,3.60
2018-01-20T05:02:33.151Z,3.60
2018-01-20T05:05:01.439Z,3.60
2018-01-20T05:07:29.693Z,3.50
2018-01-20T05:09:58.750Z,3.50
2018-01-20T05:12:27.105Z,3.50
2018-01-20T05:14:55.386Z,3.50
2018-01-20T05:17:23.641Z,3.50
2018-01-20T05:19:51.882Z,3.60
2018-01-20T05:22:20.230Z,3.60
2018-01-20T05:24:48.559Z,3.60
2018-01-20T05:27:16.898Z,3.60
2018-01-20T05:29:45.134Z,3.60
2018-01-20T05:32:14.268Z,3.50
2018-01-20T05:34:42.506Z,3.50
2018-01-20T05:37:11.531Z,3.50
2018-01-20T05:39:39.806Z,3.40
2018-01-20T05:42:08.045Z,3.40
2018-01-20T05:44:36.385Z,3.40
2018-01-20T05:47:04.674Z,3.40
2018-01-20T05:49:33.269Z,3.40
2018-01-20T05:52:01.487Z,3.30
2018-01-20T05:54:31.008Z,3.20
2018-01-20T05:57:00.019Z,3.30
2018-01-20T05:59:28.268Z,3.30
2018-01-20T06:01:57.285Z,3.30
2018-01-20T06:04:26.313Z,3.40
2018-01-20T06:06:54.630Z,3.40
2018-01-20T06:09:22.858Z,3.40
2018-01-20T06:11:51.096Z,3.40
2018-01-20T06:14:19.356Z,3.40
2018-01-20T06:16:47.601Z,3.40
2018-01-20T06:19:15.851Z,3.40
2018-01-20T06:21:44.886Z,3.50
2018-01-20T06:24:13.166Z,3.50
2018-01-20T06:26:41.441Z,3.50
2018-01-20T06:29:09.730Z,3.50
2018-01-20T06:31:38.014Z,3.50
2018-01-20T06:34:06.270Z,3.50
2018-01-20T06:36:34.610Z,3.40
2018-01-20T06:39:02.833Z,3.40
2018-01-20T06:41:31.144Z,3.30
2018-01-20T06:43:59.404Z,3.30
2018-01-20T06:46:27.658Z,3.20
2018-01-20T06:48:56.728Z,3.20
2018-01-20T06:51:25.078Z,3.10
2018-01-20T06:53:54.821Z,3.20
2018-01-20T06:56:23.122Z,3.20
2018-01-20T06:58:51.394Z,3.30
2018-01-20T07:01:19.647Z,3.20
2018-01-20T07:03:47.887Z,3.20
2018-01-20T07:06:16.154Z,3.10
2018-01-20T07:08:45.216Z,3.20
2018-01-20T07:11:13.569Z,3.10
2018-01-20T07:13:41.853Z,3.10
2018-01-20T07:16:10.117Z,3.20
2018-01-20T07:18:39.128Z,3.10
2018-01-20T07:21:07.437Z,3.10
2018-01-20T07:23:35.695Z,3.20
2018-01-20T07:26:03.966Z,3.20
2018-01-20T07:28:32.203Z,3.20
2018-01-20T07:31:01.219Z,3.30
2018-01-20T07:33:30.238Z,3.40
2018-01-20T07:35:58.481Z,3.40
2018-01-20T07:38:27.530Z,3.80
2018-01-20T07:40:55.809Z,3.80
2018-01-20T07:43:24.084Z,4.00
2018-01-20T07:45:52.345Z,4.20
2018-01-20T07:48:21.341Z,4.20
2018-01-20T07:50:49.593Z,4.20
2018-01-20T07:53:17.838Z,4.20
2018-01-20T07:55:46.101Z,4.40
2018-01-20T07:58:14.338Z,4.60
2018-01-20T08:00:43.363Z,4.80
2018-01-20T08:03:11.605Z,4.70
2018-01-20T08:05:39.838Z,4.90
2018-01-20T08:08:08.114Z,4.80
2018-01-20T08:10:36.390Z,4.80
2018-01-20T08:13:04.650Z,4.90
2018-01-20T08:15:33.654Z,4.70
2018-01-20T08:18:01.922Z,4.70
2018-01-20T08:20:30.232Z,4.60
2018-01-20T08:22:58.483Z,4.70
2018-01-20T08:25:27.491Z,5.10
2018-01-20T08:27:55.802Z,5.10
2018-01-20T08:30:24.045Z,5.30
2018-01-20T08:32:53.094Z,5.30
2018-01-20T08:35:21.357Z,5.30
2018-01-20T08:37:49.649Z,5.10
2018-01-20T08:40:17.881Z,5.00
2018-01-20T08:42:46.909Z,4.80
2018-01-20T08:45:15.155Z,4.80
2018-01-20T08:47:44.191Z,4.60
2018-01-20T08:50:12.469Z,4.60
2018-01-20T08:52:40.743Z,4.70
2018-01-20T08:55:08.995Z,4.70
2018-01-20T08:57:38.059Z,4.80
2018-01-20T09:00:07.070Z,4.70
2018-01-20T09:02:35.409Z,4.70
2018-01-20T09:05:03.675Z,4.60
2018-01-20T09:07:31.934Z,4.70
2018-01-20T09:10:00.195Z,4.70
2018-01-20T09:12:28.451Z,4.70
2018-01-20T09:14:56.730Z,4.50
2018-01-20T09:17:25.082Z,4.60
2018-01-20T09:19:53.395Z,4.60
2018-01-20T09:22:21.647Z,4.60
2018-01-20T09:24:49.915Z,4.70
2018-01-20T09:27:18.208Z,4.60
2018-01-20T09:29:46.474Z,4.50
2018-01-20T09:32:14.715Z,4.30
2018-01-20T09:34:43.771Z,4.50
2018-01-20T09:37:12.013Z,4.50
2018-01-20T09:39:41.062Z,4.50
2018-01-20T09:42:09.309Z,4.50
2018-01-20T09:44:37.570Z,4.50
2018-01-20T09:47:06.617Z,4.70
2018-01-20T09:49:34.916Z,4.70
2018-01-20T09:52:03.158Z,4.60
2018-01-20T09:54:31.412Z,4.70
2018-01-20T09:57:00.457Z,4.70
2018-01-20T09:59:28.702Z,4.70
2018-01-20T10:01:56.951Z,4.70
2018-01-20T10:04:25.798Z,4.70
2018-01-20T10:06:54.037Z,4.70
2018-01-20T10:09:23.962Z,4.70
2018-01-20T10:11:52.201Z,4.60
2018-01-20T10:14:20.463Z,4.70
2018-01-20T10:16:48.698Z,4.60
2018-01-20T10:19:17.718Z,4.70
2018-01-20T10:21:45.960Z,4.70
2018-01-20T10:24:15.002Z,4.60
2018-01-20T10:26:43.257Z,4.60
2018-01-20T10:29:12.264Z,4.50
2018-01-20T10:31:40.506Z,4.50
2018-01-20T10:34:09.225Z,4.60
2018-01-20T10:36:37.473Z,4.60
2018-01-20T10:39:05.812Z,4.60
2018-01-20T10:41:34.111Z,4.60
2018-01-20T10:44:02.364Z,4.70
2018-01-20T10:46:30.670Z,4.60
2018-01-20T10:48:58.946Z,4.70
2018-01-20T10:51:27.396Z,4.80
2018-01-20T10:53:55.641Z,4.80
2018-01-20T10:56:23.989Z,4.70
2018-01-20T10:58:52.259Z,4.80
2018-01-20T11:01:20.512Z,4.90
2018-01-20T11:03:48.757Z,4.90
2018-01-20T11:06:17.605Z,5.00
2018-01-20T11:08:45.845Z,5.00
2018-01-20T11:11:14.874Z,5.10
2018-01-20T11:13:43.111Z,5.10
2018-01-20T11:16:11.369Z,5.10
2018-01-20T11:18:39.627Z,5.20
2018-01-20T11:21:07.915Z,5.20
2018-01-20T11:23:36.294Z,5.30
2018-01-20T11:26:04.633Z,5.30
2018-01-20T11:28:33.643Z,5.30
2018-01-20T11:31:02.674Z,5.30
2018-01-20T11:33:30.925Z,5.30
2018-01-20T11:35:59.931Z,5.30
2018-01-20T11:38:28.218Z,5.30
2018-01-20T11:40:56.533Z,5.20
2018-01-20T11:43:24.798Z,5.20
2018-01-20T11:45:53.086Z,5.20
2018-01-20T11:48:21.334Z,5.10
2018-01-20T11:50:49.619Z,5.10
2018-01-20T11:53:17.870Z,5.10
2018-01-20T11:55:46.910Z,5.00
2018-01-20T11:58:15.234Z,5.00
2018-01-20T12:00:44.189Z,5.10
2018-01-20T12:03:12.469Z,5.10
2018-01-20T12:05:40.789Z,5.00
2018-01-20T12:08:09.139Z,5.00
2018-01-20T12:10:37.420Z,4.90
2018-01-20T12:13:05.678Z,4.90
2018-01-20T12:15:33.927Z,4.90
2018-01-20T12:18:02.967Z,4.80
2018-01-20T12:20:31.218Z,4.80
2018-01-20T12:23:00.234Z,4.80
2018-01-20T12:25:28.647Z,4.80
2018-01-20T12:27:57.054Z,4.80
2018-01-20T12:30:25.291Z,4.70
2018-01-20T12:32:54.532Z,4.70
2018-01-20T12:35:22.765Z,4.70
2018-01-20T12:37:52.402Z,4.70
2018-01-20T12:40:20.673Z,4.60
2018-01-20T12:42:49.142Z,4.60
2018-01-20T12:45:17.411Z,4.60
2018-01-20T12:47:46.409Z,4.60
2018-01-20T12:50:14.678Z,4.60
2018-01-20T12:52:43.677Z,4.60
2018-01-20T12:55:12.742Z,4.60
2018-01-20T12:57:40.999Z,4.60
2018-01-20T13:00:09.267Z,4.60
2018-01-20T13:02:37.552Z,4.60
2018-01-20T13:05:05.825Z,4.60
2018-01-20T13:07:34.317Z,4.60
2018-01-20T13:10:02.593Z,4.60
2018-01-20T13:12:30.883Z,4.50
2018-01-20T13:14:59.162Z,4.50
2018-01-20T13:17:27.421Z,4.50
2018-01-20T13:19:55.720Z,4.60
2018-01-20T13:22:24.011Z,4.50
2018-01-20T13:24:52.270Z,4.60
2018-01-20T13:27:20.574Z,4.70
2018-01-20T13:29:48.829Z,4.60
2018-01-20T13:32:17.069Z,4.60
2018-01-20T13:34:45.458Z,4.60
2018-01-20T13:37:14.509Z,4.70
2018-01-20T13:39:42.769Z,4.60
2018-01-20T13:42:11.020Z,4.60
2018-01-20T13:44:39.278Z,4.60
2018-01-20T13:47:09.203Z,4.60
2018-01-20T13:49:37.450Z,4.60
2018-01-20T13:52:05.733Z,4.60
2018-01-20T13:54:34.011Z,4.50
2018-01-20T13:57:02.290Z,4.50
2018-01-20T13:59:30.771Z,4.50
2018-01-20T14:01:59.055Z,4.50
2018-01-20T14:04:27.299Z,4.40
2018-01-20T14:06:56.332Z,4.30
2018-01-20T14:09:24.588Z,4.30
2018-01-20T14:11:52.850Z,4.30
2018-01-20T14:14:21.861Z,4.20
2018-01-20T14:16:50.114Z,4.20
2018-01-20T14:19:19.158Z,4.20
2018-01-20T14:21:47.418Z,4.10
2018-01-20T14:24:15.719Z,4.20
2018-01-20T14:26:44.003Z,4.20
2018-01-20T14:29:12.241Z,4.20
2018-01-20T14:31:43.602Z,4.30
2018-01-20T14:34:11.860Z,4.20
2018-01-20T14:36:40.190Z,4.30
2018-01-20T14:39:08.435Z,4.20
2018-01-20T14:41:37.499Z,4.10
2018-01-20T14:44:05.780Z,4.10
2018-01-20T14:46:34.164Z,4.10
2018-01-20T14:49:02.378Z,4.00
2018-01-20T14:51:33.175Z,3.90
2018-01-20T14:54:01.411Z,4.00
2018-01-20T14:56:29.688Z,4.00
2018-01-20T14:59:00.978Z,4.00
2018-01-20T15:01:29.520Z,4.00
2018-01-20T15:03:57.857Z,4.10
2018-01-20T15:06:26.313Z,4.10
2018-01-20T15:08:54.591Z,4.00
2018-01-20T15:11:22.821Z,4.00
2018-01-20T15:13:53.426Z,4.10
2018-01-20T15:16:22.286Z,4.00
2018-01-20T15:18:50.541Z,4.10
2018-01-20T15:21:19.606Z,4.10
2018-01-20T15:23:47.951Z,4.10
2018-01-20T15:26:16.198Z,4.10
2018-01-20T15:28:45.217Z,4.10
2018-01-20T15:31:13.476Z,4.10
2018-01-20T15:33:42.506Z,4.20
2018-01-20T15:36:10.795Z,4.20
2018-01-20T15:38:39.078Z,4.00
2018-01-20T15:41:07.359Z,4.00
2018-01-20T15:43:35.681Z,3.90
2018-01-20T15:46:03.956Z,3.90
2018-01-20T15:48:32.197Z,3.80
2018-01-20T15:51:00.434Z,3.80
2018-01-20T15:53:29.201Z,3.80
2018-01-20T15:55:57.751Z,3.80
2018-01-20T15:58:26.023Z,3.80
2018-01-20T16:00:54.279Z,3.90
2018-01-20T16:03:23.312Z,3.90
2018-01-20T16:05:51.600Z,3.90
2018-01-20T16:08:20.596Z,3.90
2018-01-20T16:10:48.833Z,3.90
2018-01-20T16:13:17.095Z,3.90
2018-01-20T16:15:45.378Z,3.90
2018-01-20T16:18:13.639Z,3.90
2018-01-20T16:20:42.039Z,3.80
2018-01-20T16:23:10.277Z,3.70
2018-01-20T16:25:38.558Z,3.70
2018-01-20T16:28:06.830Z,3.70
2018-01-20T16:30:35.085Z,3.70
2018-01-20T16:33:03.347Z,3.60
2018-01-20T16:35:31.616Z,3.70
2018-01-20T16:37:59.925Z,3.60
2018-01-20T16:40:28.218Z,3.60
2018-01-20T16:42:56.449Z,3.60
2018-01-20T16:45:24.709Z,3.70
2018-01-20T16:47:52.961Z,3.70
2018-01-20T16:50:21.297Z,3.70
2018-01-20T16:52:49.533Z,3.70
2018-01-20T16:55:17.860Z,3.70
2018-01-20T16:57:46.133Z,3.70
2018-01-20T17:00:14.449Z,3.70
2018-01-20T17:02:43.483Z,3.70
2018-01-20T17:05:11.759Z,3.60
2018-01-20T17:07:40.071Z,3.70
2018-01-20T17:10:08.749Z,3.70
2018-01-20T17:12:37.217Z,3.60
2018-01-20T17:15:05.511Z,3.60
2018-01-20T17:17:33.766Z,3.70
2018-01-20T17:20:02.033Z,3.70
2018-01-20T17:22:30.292Z,3.60
2018-01-20T17:24:59.326Z,3.60
2018-01-20T17:27:27.565Z,3.60
2018-01-20T17:29:56.582Z,3.60
2018-01-20T17:32:25.620Z,3.60
2018-01-20T17:34:53.905Z,3.50
2018-01-20T17:37:22.270Z,3.60
2018-01-20T17:39:50.519Z,3.60
2018-01-20T17:42:19.562Z,3.50
2018-01-20T17:44:47.815Z,3.50
2018-01-20T17:47:16.086Z,3.50
2018-01-20T17:49:44.334Z,3.50
2018-01-20T17:52:13.996Z,3.50
2018-01-20T17:54:42.241Z,3.50
2018-01-20T17:57:11.287Z,3.50
2018-01-20T17:59:39.538Z,3.50
2018-01-20T18:02:07.820Z,3.50
2018-01-20T18:04:36.081Z,3.60
2018-01-20T18:07:05.118Z,3.60
2018-01-20T18:09:33.502Z,3.60
2018-01-20T18:12:01.774Z,3.60
2018-01-20T18:14:30.016Z,3.60
2018-01-20T18:16:59.051Z,3.50
2018-01-20T18:19:27.313Z,3.60
2018-01-20T18:21:56.385Z,3.60
2018-01-20T18:24:24.725Z,3.60
2018-01-20T18:26:53.190Z,3.60
2018-01-20T18:29:22.273Z,3.60
2018-01-20T18:31:50.618Z,3.60
2018-01-20T18:34:18.841Z,3.60
2018-01-20T18:36:47.567Z,3.70
2018-01-20T18:39:15.834Z,3.70
2018-01-20T18:41:44.078Z,3.80
2018-01-20T18:44:13.100Z,3.90
2018-01-20T18:46:41.372Z,3.90
2018-01-20T18:49:09.637Z,3.90
2018-01-20T18:51:38.661Z,3.90
2018-01-20T18:54:06.923Z,3.90
2018-01-20T18:56:35.322Z,4.00
2018-01-20T18:59:03.586Z,4.00
2018-01-20T19:01:31.831Z,4.00
2018-01-20T19:04:00.176Z,4.00
2018-01-20T19:06:28.425Z,4.10
2018-01-20T19:08:57.610Z,4.10
2018-01-20T19:11:26.676Z,4.10
2018-01-20T19:13:55.036Z,4.10
2018-01-20T19:16:23.285Z,4.00
2018-01-20T19:18:51.542Z,4.10
2018-01-20T19:21:20.605Z,4.10
2018-01-20T19:23:48.966Z,4.10
2018-01-20T19:26:17.206Z,4.20
2018-01-20T19:28:46.262Z,4.20
2018-01-20T19:31:14.539Z,4.20
2018-01-20T19:33:42.828Z,4.10
2018-01-20T19:36:12.132Z,4.10
2018-01-20T19:38:40.639Z,4.20
2018-01-20T19:41:08.968Z,4.20
2018-01-20T19:43:37.275Z,4.10
2018-01-20T19:46:05.570Z,4.10
2018-01-20T19:48:33.821Z,4.10
2018-01-20T19:51:02.087Z,4.10
2018-01-20T19:53:30.403Z,4.10
2018-01-20T19:55:58.754Z,4.10
2018-01-20T19:58:26.999Z,4.20
2018-01-20T20:00:56.030Z,4.30
2018-01-20T20:03:24.277Z,4.30
2018-01-20T20:05:52.835Z,4.20
2018-01-20T20:08:21.075Z,4.20
2018-01-20T20:10:49.342Z,4.20
2018-01-20T20:13:17.631Z,4.20
2018-01-20T20:15:45.927Z,4.20
2018-01-20T20:18:14.353Z,4.30
2018-01-20T20:20:42.582Z,4.20
2018-01-20T20:23:10.832Z,4.20
2018-01-20T20:25:39.482Z,4.20
2018-01-20T20:28:08.114Z,4.20
2018-01-20T20:30:37.165Z,4.20
2018-01-20T20:33:05.716Z,4.20
2018-01-20T20:35:34.031Z,4.20
2018-01-20T20:38:02.618Z,4.20
2018-01-20T20:40:31.093Z,4.30
2018-01-20T20:43:00.409Z,4.40
2018-01-20T20:45:29.119Z,4.40
2018-01-20T20:47:57.483Z,4.40
2018-01-20T20:50:26.789Z,4.30
2018-01-20T20:52:55.271Z,4.30
2018-01-20T20:55:23.856Z,4.30
2018-01-20T20:57:52.506Z,4.20
2018-01-20T21:00:21.751Z,4.30
2018-01-20T21:02:50.394Z,4.30
2018-01-20T21:05:19.130Z,4.30
2018-01-20T21:07:48.546Z,4.20
2018-01-20T21:10:17.566Z,4.20
2018-01-20T21:12:46.186Z,4.20
2018-01-20T21:15:15.726Z,4.10
2018-01-20T21:17:44.525Z,4.10
2018-01-20T21:20:14.901Z,4.10
2018-01-20T21:22:44.382Z,4.10
2018-01-20T21:25:13.462Z,4.10
2018-01-20T21:27:41.920Z,4.10
2018-01-20T21:30:10.264Z,4.10
2018-01-20T21:32:38.889Z,4.10
2018-01-20T21:35:08.239Z,4.00
2018-01-20T21:37:36.810Z,4.00
2018-01-20T21:40:05.462Z,4.00
2018-01-20T21:42:34.184Z,4.00
2018-01-20T21:45:03.902Z,4.00
2018-01-20T21:47:32.394Z,4.00
2018-01-20T21:50:01.555Z,4.00
2018-01-20T21:52:30.074Z,4.00
2018-01-20T21:54:58.462Z,4.00
2018-01-20T21:57:26.814Z,4.00
2018-01-20T21:59:55.057Z,4.00
2018-01-20T22:02:23.374Z,3.90
2018-01-20T22:04:51.641Z,4.00
2018-01-20T22:07:19.933Z,3.90
2018-01-20T22:09:48.198Z,3.90
2018-01-20T22:12:16.480Z,3.90
2018-01-20T22:14:44.781Z,3.90
2018-01-20T22:17:14.575Z,3.90
2018-01-20T22:19:42.837Z,3.90
2018-01-20T22:22:11.085Z,4.00
2018-01-20T22:24:40.122Z,4.00
2018-01-20T22:27:08.386Z,4.00
2018-01-20T22:29:36.649Z,4.00
2018-01-20T22:32:05.657Z,3.90
2018-01-20T22:34:34.586Z,3.90
2018-01-20T22:37:02.833Z,3.90
2018-01-20T22:39:31.155Z,3.90
2018-01-20T22:41:59.396Z,3.90
2018-01-20T22:44:27.693Z,3.90
2018-01-20T22:46:55.982Z,3.90
2018-01-20T22:49:24.297Z,3.90
2018-01-20T22:51:52.574Z,3.90
2018-01-20T22:54:20.918Z,3.80
2018-01-20T22:56:49.251Z,3.70
2018-01-20T22:59:17.492Z,3.70
2018-01-20T23:01:45.753Z,3.70
2018-01-20T23:04:14.055Z,3.70
2018-01-20T23:06:42.347Z,3.70
2018-01-20T23:09:10.713Z,3.70
2018-01-20T23:11:38.994Z,3.70
2018-01-20T23:14:07.282Z,3.70
2018-01-20T23:16:35.531Z,3.70
2018-01-20T23:19:03.821Z,3.70
2018-01-20T23:21:32.124Z,3.70
2018-01-20T23:24:00.395Z,3.70
2018-01-20T23:26:28.645Z,3.80
2018-01-20T23:28:57.673Z,3.80
2018-01-20T23:31:25.944Z,3.80
2018-01-20T23:33:54.254Z,3.80
2018-01-20T23:36:22.529Z,3.80
2018-01-20T23:38:50.779Z,3.80
2018-01-20T23:41:19.038Z,3.80
2018-01-20T23:43:48.078Z,3.80
2018-01-20T23:46:16.325Z,3.80
2018-01-20T23:48:45.344Z,3.80
2018-01-20T23:51:13.634Z,3.80
2018-01-20T23:53:41.882Z,3.80
2018-01-20T23:56:10.924Z,3.80
2018-01-20T23:58:39.201Z,3.80
